LTFC

Details ICAO LTFC (ISE)
Name SULEYMAN DEMIREL
Region Turkey
Timezone Europe/Istanbul (UTC+3.0)
Plans Departing 21
Arriving 24
Stats Elevation 2,835 ft / 864 m (AMSL)
Location 37.855415° 30.368399°
Runways 1
Magnetic Variation 5.156° E
Sunrise 2017-12-16 05:08:56 UTC / 2017-12-16 08:08:56 Local
Sunset 2017-12-16 14:42:04 UTC / 2017-12-16 17:42:04 Local
Advertisement - Login to hide

Runways

ID Width Length Bearing (true) Bearing (mag) Surface Threshold Offset Overrun Length
05 148 ft / 45 m 9,856 ft / 3,004 m 49.51° 44.35° Concrete 0 ft / 0 m 190 ft / 58 m
23 148 ft / 45 m 9,856 ft / 3,004 m 229.52° 224.36° Concrete 0 ft / 0 m 190 ft / 58 m

Map

Weather


0- 5 10 15 20 25 30 35+ Temperature / ° C

Clouds and Precipitation
Forecast for 2017-12-16 06:00 UTC. Updated 35 minutes ago

Ground ~20,000 ft ~40,000 ft Winds

METAR

LTFC 160320Z 33003KT 310V080 4000 BR BKN010 01/01 Q1021

TAF

Not found

Frequencies

Ground 121.70 MHz ISPARTA GND
Tower 119.20 MHz ISPARTA TWR
Warning: Do not use this data for real-world aviation or navigation. No guarantee of current accuracy is given.